createdAt,value
2017-08-14T00:00:18.081Z,22.97
2017-08-14T00:02:47.322Z,22.57
2017-08-14T00:05:16.593Z,23.80
2017-08-14T00:07:44.729Z,24.50
2017-08-14T00:10:15.405Z,23.17
2017-08-14T00:12:44.276Z,21.57
2017-08-14T00:15:12.461Z,22.20
2017-08-14T00:17:41.235Z,22.37
2017-08-14T00:20:10.841Z,23.33
2017-08-14T00:22:40.877Z,24.03
2017-08-14T00:25:11.983Z,23.97
2017-08-14T00:27:40.394Z,24.97
2017-08-14T00:30:10.870Z,23.60
2017-08-14T00:32:41.579Z,23.03
2017-08-14T00:35:09.540Z,22.63
2017-08-14T00:37:38.561Z,24.50
2017-08-14T00:40:06.440Z,23.10
2017-08-14T00:42:34.154Z,23.63
2017-08-14T00:45:02.055Z,23.23
2017-08-14T00:47:30.484Z,21.30
2017-08-14T00:49:58.026Z,22.90
2017-08-14T00:52:25.638Z,20.60
2017-08-14T00:54:53.178Z,23.27
2017-08-14T00:57:21.491Z,24.00
2017-08-14T00:59:49.060Z,23.63
2017-08-14T01:02:16.791Z,24.80
2017-08-14T01:04:44.581Z,23.23
2017-08-14T01:07:12.238Z,22.30
2017-08-14T01:09:40.077Z,25.30
2017-08-14T01:12:09.418Z,25.60
2017-08-14T01:14:37.002Z,23.47
2017-08-14T01:17:04.782Z,23.50
2017-08-14T01:19:32.949Z,24.23
2017-08-14T01:22:00.449Z,23.50
2017-08-14T01:24:28.007Z,24.50
2017-08-14T01:26:55.522Z,24.40
2017-08-14T01:29:23.190Z,24.80
2017-08-14T01:31:50.692Z,22.67
2017-08-14T01:34:19.238Z,22.47
2017-08-14T01:36:46.734Z,22.80
2017-08-14T01:39:14.456Z,25.10
2017-08-14T01:41:42.233Z,26.67
2017-08-14T01:44:14.642Z,26.57
2017-08-14T01:46:42.264Z,25.33
2017-08-14T01:49:10.038Z,26.53
2017-08-14T01:51:37.744Z,25.53
2017-08-14T01:54:05.584Z,26.67
2017-08-14T01:56:33.148Z,26.57
2017-08-14T01:59:00.758Z,25.80
2017-08-14T02:01:28.328Z,27.60
2017-08-14T02:03:56.495Z,27.50
2017-08-14T02:06:24.180Z,28.33
2017-08-14T02:08:51.863Z,26.90
2017-08-14T02:11:19.683Z,27.10
2017-08-14T02:13:47.299Z,29.13
2017-08-14T02:16:15.367Z,26.50
2017-08-14T02:18:43.326Z,28.37
2017-08-14T02:21:11.106Z,27.67
2017-08-14T02:23:38.608Z,26.80
2017-08-14T02:26:06.610Z,31.20
2017-08-14T02:28:35.396Z,30.93
2017-08-14T02:31:03.898Z,30.10
2017-08-14T02:33:32.483Z,29.00
2017-08-14T02:36:00.413Z,31.63
2017-08-14T02:38:28.781Z,34.07
2017-08-14T02:40:56.786Z,35.30
2017-08-14T02:43:24.631Z,33.90
2017-08-14T02:45:52.463Z,36.50
2017-08-14T02:48:20.281Z,32.33
2017-08-14T02:50:48.122Z,31.80
2017-08-14T02:53:15.749Z,29.57
2017-08-14T02:55:43.763Z,28.77
2017-08-14T02:58:11.400Z,30.97
2017-08-14T03:03:11.750Z,31.57
2017-08-14T03:05:39.383Z,33.23
2017-08-14T03:08:07.405Z,30.50
2017-08-14T03:10:34.964Z,27.10
2017-08-14T03:13:02.785Z,29.60
2017-08-14T03:15:30.598Z,26.00
2017-08-14T03:17:58.674Z,25.70
2017-08-14T03:20:26.746Z,26.83
2017-08-14T03:22:54.536Z,25.73
2017-08-14T03:25:22.071Z,26.60
2017-08-14T03:27:50.417Z,25.53
2017-08-14T03:30:18.097Z,26.40
2017-08-14T03:32:45.776Z,24.60
2017-08-14T03:35:14.688Z,24.33
2017-08-14T03:37:42.253Z,24.97
2017-08-14T03:40:10.960Z,24.80
2017-08-14T03:42:38.771Z,25.07
2017-08-14T03:45:06.826Z,24.70
2017-08-14T03:47:34.612Z,24.33
2017-08-14T03:50:02.595Z,22.63
2017-08-14T03:52:30.319Z,23.87
2017-08-14T03:54:58.006Z,24.60
2017-08-14T03:57:26.419Z,23.73
2017-08-14T03:59:54.371Z,25.47
2017-08-14T04:02:22.447Z,24.17
2017-08-14T04:04:50.157Z,22.37
2017-08-14T04:07:17.897Z,19.90
2017-08-14T04:09:45.390Z,22.33
2017-08-14T04:12:13.259Z,21.77
2017-08-14T04:14:40.996Z,21.27
2017-08-14T04:17:08.799Z,21.30
2017-08-14T04:19:36.496Z,21.47
2017-08-14T04:22:04.466Z,20.70
2017-08-14T04:24:33.980Z,22.50
2017-08-14T04:27:01.820Z,20.23
2017-08-14T04:29:29.551Z,21.10
2017-08-14T04:31:57.082Z,20.87
2017-08-14T04:37:01.927Z,22.00
2017-08-14T04:39:29.492Z,21.67
2017-08-14T04:41:57.078Z,20.70
2017-08-14T04:44:24.762Z,20.90
2017-08-14T04:46:52.499Z,20.67
2017-08-14T04:49:20.321Z,19.67
2017-08-14T04:51:47.968Z,20.70
2017-08-14T04:54:15.507Z,19.30
2017-08-14T04:56:45.280Z,19.47
2017-08-14T04:59:13.480Z,18.57
2017-08-14T05:01:41.216Z,19.23
2017-08-14T05:04:08.778Z,19.67
2017-08-14T05:06:36.321Z,19.20
2017-08-14T05:09:04.099Z,19.80
2017-08-14T05:11:32.460Z,20.13
2017-08-14T05:14:00.432Z,19.00
2017-08-14T05:16:28.105Z,19.70
2017-08-14T05:18:56.383Z,18.83
2017-08-14T05:21:27.842Z,18.20
2017-08-14T05:23:55.541Z,17.70
2017-08-14T05:26:24.002Z,17.10
2017-08-14T05:28:51.872Z,18.97
2017-08-14T05:31:20.992Z,17.30
2017-08-14T05:36:25.915Z,18.40
2017-08-14T05:38:55.505Z,18.63
2017-08-14T05:41:24.976Z,18.10
2017-08-14T05:43:53.040Z,16.60
2017-08-14T05:46:21.051Z,16.63
2017-08-14T05:48:49.780Z,16.53
2017-08-14T05:51:18.422Z,16.90
2017-08-14T05:53:47.417Z,17.73
2017-08-14T05:56:16.164Z,18.30
2017-08-14T05:58:44.769Z,18.23
2017-08-14T06:01:13.121Z,16.70
2017-08-14T06:03:41.029Z,17.80
2017-08-14T06:06:10.357Z,17.80
2017-08-14T06:08:38.068Z,16.10
2017-08-14T06:11:05.939Z,16.80
2017-08-14T06:13:34.611Z,16.70
2017-08-14T06:16:04.978Z,16.67
2017-08-14T06:18:33.131Z,16.27
2017-08-14T06:21:02.064Z,15.17
2017-08-14T06:23:29.575Z,16.30
2017-08-14T06:25:57.417Z,15.63
2017-08-14T06:28:26.149Z,16.30
2017-08-14T06:30:53.918Z,15.90
2017-08-14T06:33:22.049Z,15.20
2017-08-14T06:35:49.678Z,15.90
2017-08-14T06:38:17.490Z,15.63
2017-08-14T06:40:45.158Z,14.80
2017-08-14T06:43:12.875Z,15.43
2017-08-14T06:45:42.037Z,15.50
2017-08-14T06:48:09.627Z,16.20
2017-08-14T06:50:37.490Z,16.37
2017-08-14T06:53:05.712Z,12.67
2017-08-14T06:55:35.791Z,12.00
2017-08-14T06:58:04.346Z,12.43
2017-08-14T07:00:33.927Z,11.50
2017-08-14T07:03:05.119Z,10.50
2017-08-14T07:08:06.593Z,12.50
2017-08-14T07:10:34.539Z,10.80
2017-08-14T07:13:09.635Z,12.40
2017-08-14T07:15:56.708Z,13.00
2017-08-14T07:18:35.074Z,12.80
2017-08-14T07:21:03.172Z,11.60
2017-08-14T07:23:40.128Z,11.30
2017-08-14T07:26:09.348Z,11.77
2017-08-14T07:28:39.064Z,11.50
2017-08-14T07:31:08.144Z,13.23
2017-08-14T07:33:36.920Z,12.60
2017-08-14T07:36:04.989Z,13.60
2017-08-14T07:38:38.724Z,13.10
2017-08-14T07:44:06.237Z,12.80
2017-08-14T07:46:34.381Z,11.33
2017-08-14T07:49:02.590Z,10.83
2017-08-14T07:51:34.003Z,11.70
2017-08-14T07:54:04.658Z,13.10
2017-08-14T07:56:32.366Z,10.20
2017-08-14T07:59:01.035Z,15.03
2017-08-14T08:01:30.665Z,13.60
2017-08-14T08:04:01.244Z,12.30
2017-08-14T08:06:31.022Z,12.60
2017-08-14T08:08:58.995Z,11.47
2017-08-14T08:11:26.600Z,10.70
2017-08-14T08:13:54.467Z,10.00
2017-08-14T08:16:22.241Z,9.90
2017-08-14T08:18:50.121Z,10.90
2017-08-14T08:21:19.654Z,10.27
2017-08-14T08:23:47.467Z,10.00
2017-08-14T08:26:33.411Z,9.53
2017-08-14T08:29:05.134Z,9.70
2017-08-14T08:31:33.251Z,9.07
2017-08-14T08:34:14.214Z,9.37
2017-08-14T08:36:46.881Z,9.73
2017-08-14T08:39:16.445Z,10.57
2017-08-14T08:44:21.320Z,7.70
2017-08-14T08:46:52.969Z,7.10
2017-08-14T08:49:21.382Z,7.20
2017-08-14T08:51:53.052Z,8.20
2017-08-14T08:54:30.128Z,7.67
2017-08-14T08:56:59.118Z,6.87
2017-08-14T08:59:27.862Z,7.50
2017-08-14T09:01:56.583Z,8.83
2017-08-14T09:04:24.450Z,7.00
2017-08-14T09:06:53.547Z,5.63
2017-08-14T09:09:22.116Z,6.40
2017-08-14T09:14:28.152Z,5.37
2017-08-14T09:17:01.833Z,5.97
2017-08-14T09:22:11.417Z,5.10
2017-08-14T09:24:54.341Z,4.90
2017-08-14T09:27:27.118Z,5.53
2017-08-14T09:30:06.870Z,5.73
2017-08-14T09:32:40.396Z,6.60
2017-08-14T09:35:17.034Z,6.07
2017-08-14T09:37:57.329Z,6.60
2017-08-14T09:40:33.620Z,7.00
2017-08-14T09:43:39.378Z,5.40
2017-08-14T09:46:29.509Z,5.83
2017-08-14T09:54:19.653Z,5.17
2017-08-14T09:56:52.791Z,6.00
2017-08-14T09:59:24.263Z,6.40
2017-08-14T10:02:17.198Z,5.67
2017-08-14T10:07:31.748Z,6.10
2017-08-14T10:10:02.653Z,5.67
2017-08-14T10:12:31.264Z,7.20
2017-08-14T10:15:09.635Z,8.27
2017-08-14T10:20:27.817Z,5.60
2017-08-14T10:30:59.022Z,5.70
2017-08-14T10:33:33.122Z,5.37
2017-08-14T10:36:06.210Z,4.93
2017-08-14T10:38:37.293Z,5.50
2017-08-14T10:41:06.052Z,4.50
2017-08-14T10:43:36.303Z,5.30
2017-08-14T10:46:30.887Z,5.77
2017-08-14T10:49:01.215Z,5.00
2017-08-14T10:51:30.570Z,5.30
2017-08-14T10:54:11.357Z,5.30
2017-08-14T10:56:48.944Z,5.63
2017-08-14T10:59:35.259Z,6.30
2017-08-14T11:02:04.100Z,5.40
2017-08-14T11:04:47.730Z,6.20
2017-08-14T11:07:18.284Z,5.77
2017-08-14T11:12:30.305Z,5.57
2017-08-14T11:17:41.986Z,6.40
2017-08-14T11:22:51.297Z,5.60
2017-08-14T11:25:19.786Z,5.43
2017-08-14T11:27:47.986Z,5.00
2017-08-14T11:30:16.461Z,5.27
2017-08-14T11:32:45.140Z,5.50
2017-08-14T11:35:32.663Z,5.30
2017-08-14T11:38:06.928Z,4.40
2017-08-14T11:40:37.233Z,5.77
2017-08-14T11:43:12.258Z,5.30
2017-08-14T11:45:40.477Z,6.33
2017-08-14T11:48:13.782Z,5.40
2017-08-14T11:50:52.784Z,5.33
2017-08-14T11:56:19.915Z,4.40
2017-08-14T11:58:47.892Z,5.53
2017-08-14T12:06:55.790Z,5.53
2017-08-14T12:09:25.271Z,5.47
2017-08-14T12:11:54.999Z,5.80
2017-08-14T12:14:24.849Z,5.07
2017-08-14T12:16:55.938Z,5.00
2017-08-14T12:19:38.712Z,4.90
2017-08-14T12:24:41.402Z,4.53
2017-08-14T12:27:10.133Z,3.73
2017-08-14T12:29:42.354Z,4.00
2017-08-14T12:32:11.623Z,4.13
2017-08-14T12:34:39.856Z,4.00
2017-08-14T12:37:12.059Z,4.40
2017-08-14T12:39:46.856Z,10.63
2017-08-14T12:42:26.642Z,5.30
2017-08-14T12:45:06.305Z,6.60
2017-08-14T12:47:43.047Z,9.30
2017-08-14T12:50:34.497Z,5.67
2017-08-14T12:53:07.285Z,5.70
2017-08-14T12:55:45.881Z,5.07
2017-08-14T12:58:22.074Z,5.20
2017-08-14T13:00:50.644Z,5.90
2017-08-14T13:03:47.722Z,6.80
2017-08-14T13:06:18.057Z,5.17
2017-08-14T13:08:48.796Z,4.10
2017-08-14T13:14:17.147Z,6.90
2017-08-14T13:16:45.983Z,4.37
2017-08-14T13:19:14.351Z,4.57
2017-08-14T13:21:46.120Z,4.13
2017-08-14T13:24:19.926Z,4.37
2017-08-14T13:26:51.423Z,5.30
2017-08-14T13:29:36.301Z,5.00
2017-08-14T13:32:07.757Z,4.43
2017-08-14T13:34:53.549Z,5.10
2017-08-14T13:37:42.940Z,4.50
2017-08-14T13:40:18.260Z,3.90
2017-08-14T13:45:44.602Z,7.70
2017-08-14T13:48:15.978Z,4.63
2017-08-14T13:53:43.548Z,4.90
2017-08-14T13:56:11.697Z,4.43
2017-08-14T13:59:00.694Z,4.03
2017-08-14T14:01:32.460Z,4.80
2017-08-14T14:06:40.967Z,4.10
2017-08-14T14:09:13.833Z,4.50
2017-08-14T14:17:38.836Z,5.20
2017-08-14T14:20:13.872Z,4.13
2017-08-14T14:22:48.230Z,5.50
2017-08-14T14:37:02.181Z,4.70
2017-08-14T14:48:42.190Z,6.20
2017-08-14T14:51:33.509Z,5.90
2017-08-14T15:04:50.497Z,4.30
2017-08-14T15:13:02.647Z,4.77
2017-08-14T15:15:30.205Z,4.67
2017-08-14T15:17:58.802Z,4.00
2017-08-14T15:20:27.246Z,4.77
2017-08-14T15:22:55.489Z,4.77
2017-08-14T15:25:22.926Z,4.43
2017-08-14T15:27:50.462Z,4.87
2017-08-14T15:30:18.111Z,4.47
2017-08-14T15:32:45.969Z,4.70
2017-08-14T15:35:13.701Z,4.53
2017-08-14T15:37:42.925Z,3.90
2017-08-14T15:40:11.024Z,7.70
2017-08-14T15:42:39.652Z,4.43
2017-08-14T15:45:07.182Z,5.60
2017-08-14T15:47:34.818Z,5.43
2017-08-14T15:50:03.524Z,5.90
2017-08-14T15:52:31.078Z,5.00
2017-08-14T15:54:59.448Z,4.47
2017-08-14T15:57:28.100Z,4.50
2017-08-14T15:59:55.985Z,6.00
2017-08-14T16:02:23.512Z,4.40
2017-08-14T16:04:51.018Z,4.70
2017-08-14T16:07:19.015Z,6.43
2017-08-14T16:09:46.461Z,4.20
2017-08-14T16:12:14.025Z,4.30
2017-08-14T16:14:44.018Z,5.00
2017-08-14T16:17:12.377Z,4.50
2017-08-14T16:19:45.903Z,4.00
2017-08-14T16:22:14.972Z,4.93
2017-08-14T16:24:42.554Z,4.40
2017-08-14T16:27:14.372Z,4.40
2017-08-14T16:29:42.564Z,4.87
2017-08-14T16:32:11.263Z,4.53
2017-08-14T16:34:38.896Z,4.40
2017-08-14T16:37:06.603Z,4.23
2017-08-14T16:39:35.248Z,4.07
2017-08-14T16:42:04.770Z,5.03
2017-08-14T16:44:32.563Z,4.47
2017-08-14T16:47:00.040Z,3.80
2017-08-14T16:49:28.260Z,5.03
2017-08-14T16:51:55.852Z,4.80
2017-08-14T16:54:24.201Z,5.00
2017-08-14T16:56:52.218Z,5.13
2017-08-14T16:59:20.746Z,4.87
2017-08-14T17:01:48.304Z,6.10
2017-08-14T17:04:16.420Z,4.40
2017-08-14T17:06:44.731Z,5.57
2017-08-14T17:12:39.089Z,5.13
2017-08-14T17:51:28.358Z,6.23
2017-08-14T17:54:03.196Z,5.13
2017-08-14T17:56:34.872Z,5.10
2017-08-14T18:05:00.073Z,4.70
2017-08-14T18:07:43.288Z,4.70
2017-08-14T18:10:19.123Z,4.93
2017-08-14T18:12:59.532Z,4.67
2017-08-14T18:18:39.567Z,4.60
2017-08-14T18:23:54.880Z,4.43
2017-08-14T18:29:34.972Z,6.03
2017-08-14T18:35:12.144Z,5.00
2017-08-14T18:37:51.216Z,5.87
2017-08-14T18:40:25.526Z,8.77
2017-08-14T18:43:03.042Z,8.23
2017-08-14T18:45:34.163Z,7.60
2017-08-14T18:53:32.328Z,13.40
2017-08-14T18:56:09.789Z,14.07
2017-08-14T18:58:55.897Z,10.50
2017-08-14T19:01:33.355Z,15.47
2017-08-14T19:04:26.254Z,12.13
2017-08-14T19:09:52.747Z,16.47
2017-08-14T19:12:25.816Z,18.93
2017-08-14T19:14:59.110Z,21.57
2017-08-14T19:17:29.904Z,10.67
2017-08-14T19:20:00.364Z,36.80
2017-08-14T19:22:44.658Z,10.53
2017-08-14T19:25:13.907Z,13.20
2017-08-14T19:27:45.268Z,12.23
2017-08-14T19:30:15.181Z,8.10
2017-08-14T19:32:43.477Z,11.03
2017-08-14T19:35:11.211Z,11.60
2017-08-14T19:37:40.737Z,11.70
2017-08-14T19:40:09.181Z,14.60
2017-08-14T19:42:40.154Z,13.50
2017-08-14T19:45:23.662Z,6.60
2017-08-14T19:47:52.083Z,10.53
2017-08-14T19:50:25.544Z,7.27
2017-08-14T19:52:56.400Z,9.23
2017-08-14T19:55:31.028Z,7.50
2017-08-14T19:58:05.995Z,11.70
2017-08-14T20:00:41.993Z,11.17
2017-08-14T20:08:35.932Z,12.03
2017-08-14T20:11:06.438Z,13.10
2017-08-14T20:28:15.112Z,9.17
2017-08-14T20:30:54.090Z,8.70
2017-08-14T20:33:48.775Z,7.13
2017-08-14T20:39:16.060Z,7.57
2017-08-14T20:51:04.722Z,7.60
2017-08-14T20:53:48.902Z,6.80
2017-08-14T20:59:21.575Z,8.90
2017-08-14T21:01:49.873Z,10.60
2017-08-14T21:04:18.908Z,6.67
2017-08-14T21:09:24.532Z,7.83
2017-08-14T21:15:06.045Z,8.60
2017-08-14T21:23:58.923Z,8.43
2017-08-14T21:26:27.660Z,6.33
2017-08-14T21:29:02.446Z,6.80
2017-08-14T21:31:31.785Z,7.50
2017-08-14T21:34:03.544Z,7.50
2017-08-14T21:36:43.456Z,8.10
2017-08-14T21:39:13.401Z,8.37
2017-08-14T21:41:46.391Z,9.50
2017-08-14T21:44:18.142Z,9.00
2017-08-14T21:46:50.270Z,10.57
2017-08-14T21:51:56.993Z,23.50
2017-08-14T21:54:29.647Z,28.47
2017-08-14T21:57:09.194Z,22.83
2017-08-14T21:59:46.733Z,18.83
2017-08-14T22:02:19.104Z,11.03
2017-08-14T22:05:03.288Z,9.40
2017-08-14T22:07:40.295Z,12.53
2017-08-14T22:10:12.979Z,12.70
2017-08-14T22:12:43.030Z,11.80
2017-08-14T22:15:12.722Z,10.10
2017-08-14T22:20:31.940Z,11.07
2017-08-14T22:23:09.688Z,10.70
2017-08-14T22:25:40.529Z,11.30
2017-08-14T22:30:53.895Z,11.57
2017-08-14T22:36:03.544Z,10.00
2017-08-14T22:38:41.890Z,10.30
2017-08-14T22:41:18.717Z,10.43
2017-08-14T22:43:54.768Z,7.73
2017-08-14T22:46:25.465Z,11.70
2017-08-14T22:48:58.507Z,7.63
2017-08-14T22:56:49.215Z,8.13
2017-08-14T22:59:20.793Z,7.73
2017-08-14T23:01:49.636Z,10.30
2017-08-14T23:07:20.864Z,8.70
2017-08-14T23:09:49.339Z,9.13
2017-08-14T23:12:33.431Z,11.33
2017-08-14T23:15:06.005Z,10.10
2017-08-14T23:17:48.179Z,12.83
2017-08-14T23:20:43.208Z,10.73
2017-08-14T23:26:05.436Z,9.90
2017-08-14T23:28:34.101Z,10.63
2017-08-14T23:31:10.774Z,10.67
2017-08-14T23:33:45.915Z,10.80
2017-08-14T23:38:59.789Z,9.10
